createdAt,value
2023-05-12T00:00:47.935Z,84.86
2023-05-12T00:02:09.526Z,84.92
2023-05-12T00:03:14.728Z,84.99
2023-05-12T00:04:21.162Z,84.85
2023-05-12T00:05:26.262Z,84.81
2023-05-12T00:06:31.818Z,85.11
2023-05-12T00:07:36.144Z,84.96
2023-05-12T00:08:41.720Z,84.86
2023-05-12T00:09:45.984Z,84.77
2023-05-12T00:10:51.506Z,84.83
2023-05-12T00:11:55.951Z,85.02
2023-05-12T00:13:02.467Z,84.86
2023-05-12T00:14:07.834Z,84.92
2023-05-12T00:15:13.791Z,84.94
2023-05-12T00:16:19.880Z,85.01
2023-05-12T00:17:28.443Z,85.04
2023-05-12T00:18:33.958Z,84.93
2023-05-12T00:19:42.150Z,84.95
2023-05-12T00:20:47.789Z,84.81
2023-05-12T00:21:54.513Z,84.90
2023-05-12T00:22:58.544Z,84.72
2023-05-12T00:24:04.422Z,84.71
2023-05-12T00:25:08.907Z,84.91
2023-05-12T00:26:14.838Z,84.96
2023-05-12T00:27:20.088Z,85.07
2023-05-12T00:28:26.094Z,84.94
2023-05-12T00:29:30.087Z,85.04
2023-05-12T00:30:35.709Z,85.05
2023-05-12T00:31:39.897Z,84.99
2023-05-12T00:32:48.427Z,85.24
2023-05-12T00:33:52.933Z,85.13
2023-05-12T00:34:58.085Z,85.12
2023-05-12T00:36:04.824Z,85.30
2023-05-12T00:37:10.399Z,84.86
2023-05-12T00:38:15.671Z,84.80
2023-05-12T00:39:20.839Z,85.18
2023-05-12T00:40:24.916Z,85.11
2023-05-12T00:41:30.455Z,85.10
2023-05-12T00:42:38.137Z,85.24
2023-05-12T00:43:43.185Z,85.28
2023-05-12T00:44:48.582Z,85.31
2023-05-12T00:45:55.120Z,85.46
2023-05-12T00:47:00.520Z,85.52
2023-05-12T00:48:09.231Z,85.48
2023-05-12T00:49:15.096Z,85.73
2023-05-12T00:50:21.656Z,85.65
2023-05-12T00:51:27.456Z,85.94
2023-05-12T00:52:33.647Z,85.67
2023-05-12T00:53:49.170Z,85.96
2023-05-12T00:54:57.023Z,85.96
2023-05-12T00:56:03.014Z,86.06
2023-05-12T00:57:08.530Z,86.08
2023-05-12T00:58:14.208Z,86.21
2023-05-12T00:59:20.894Z,86.24
2023-05-12T01:00:25.349Z,86.38
2023-05-12T01:01:32.032Z,86.24
2023-05-12T01:02:36.971Z,86.26
2023-05-12T01:03:44.001Z,86.55
2023-05-12T01:04:49.861Z,86.29
2023-05-12T01:06:03.772Z,86.70
2023-05-12T01:07:14.736Z,86.40
2023-05-12T01:08:20.407Z,86.69
2023-05-12T01:09:26.028Z,86.66
2023-05-12T01:10:31.882Z,86.83
2023-05-12T01:11:36.698Z,86.83
2023-05-12T01:12:42.630Z,86.78
2023-05-12T01:13:47.638Z,86.83
2023-05-12T01:14:55.962Z,86.64
2023-05-12T01:16:03.495Z,86.75
2023-05-12T01:17:13.967Z,86.84
2023-05-12T01:18:20.842Z,87.04
2023-05-12T01:19:39.913Z,86.78
2023-05-12T01:20:45.126Z,87.03
2023-05-12T01:21:50.721Z,87.05
2023-05-12T01:22:56.790Z,87.21
2023-05-12T01:24:09.468Z,87.33
2023-05-12T01:25:15.857Z,87.41
2023-05-12T01:26:23.342Z,87.20
2023-05-12T01:27:28.986Z,87.45
2023-05-12T01:28:34.980Z,87.25
2023-05-12T01:29:40.311Z,87.34
2023-05-12T01:30:47.185Z,87.34
2023-05-12T01:31:51.927Z,87.22
2023-05-12T01:32:57.689Z,87.44
2023-05-12T01:34:02.089Z,87.05
2023-05-12T01:35:07.678Z,87.08
2023-05-12T01:36:11.758Z,87.17
2023-05-12T01:37:17.313Z,86.96
2023-05-12T01:38:21.379Z,86.99
2023-05-12T01:39:27.108Z,87.09
2023-05-12T01:40:31.312Z,86.90
2023-05-12T01:41:38.873Z,87.37
2023-05-12T01:42:44.087Z,87.09
2023-05-12T01:43:50.821Z,86.98
2023-05-12T01:44:54.519Z,87.13
2023-05-12T01:45:59.872Z,87.08
2023-05-12T01:47:05.310Z,87.32
2023-05-12T01:48:11.125Z,87.50
2023-05-12T01:49:15.774Z,87.40
2023-05-12T01:50:22.204Z,87.26
2023-05-12T01:51:26.293Z,87.51
2023-05-12T01:52:32.828Z,87.52
2023-05-12T01:53:37.624Z,87.54
2023-05-12T01:54:42.950Z,87.45
2023-05-12T01:55:47.873Z,87.48
2023-05-12T01:56:55.331Z,87.76
2023-05-12T01:58:00.803Z,87.84
2023-05-12T01:59:06.481Z,87.51
2023-05-12T02:00:11.150Z,87.58
2023-05-12T02:01:30.610Z,87.52
2023-05-12T02:02:35.479Z,87.64
2023-05-12T02:03:42.844Z,87.54
2023-05-12T02:04:47.105Z,87.86
2023-05-12T02:05:52.742Z,87.66
2023-05-12T02:06:58.030Z,87.67
2023-05-12T02:08:04.086Z,87.69
2023-05-12T02:09:09.224Z,87.89
2023-05-12T02:10:14.884Z,87.61
2023-05-12T02:11:19.428Z,87.79
2023-05-12T02:12:26.604Z,87.83
2023-05-12T02:13:32.808Z,87.52
2023-05-12T02:14:38.646Z,87.94
2023-05-12T02:15:43.286Z,87.82
2023-05-12T02:16:53.068Z,87.67
2023-05-12T02:17:59.526Z,87.75
2023-05-12T02:19:06.168Z,87.66
2023-05-12T02:20:12.887Z,87.90
2023-05-12T02:21:18.383Z,88.11
2023-05-12T02:22:25.983Z,87.93
2023-05-12T02:23:30.545Z,87.89
2023-05-12T02:24:35.834Z,87.69
2023-05-12T02:25:41.165Z,87.69
2023-05-12T02:26:46.864Z,87.55
2023-05-12T02:27:52.147Z,87.56
2023-05-12T02:28:58.176Z,87.92
2023-05-12T02:30:02.560Z,87.74
2023-05-12T02:31:08.184Z,87.75
2023-05-12T02:32:12.984Z,87.70
2023-05-12T02:33:19.074Z,87.97
2023-05-12T02:34:24.762Z,87.99
2023-05-12T02:35:31.413Z,87.87
2023-05-12T02:36:38.568Z,87.82
2023-05-12T02:37:42.730Z,87.94
2023-05-12T02:38:48.742Z,87.74
2023-05-12T02:39:53.132Z,87.92
2023-05-12T02:40:58.906Z,87.68
2023-05-12T02:42:03.857Z,87.56
2023-05-12T02:43:10.527Z,87.44
2023-05-12T02:44:14.848Z,87.60
2023-05-12T02:45:19.514Z,87.66
2023-05-12T02:46:23.754Z,87.54
2023-05-12T02:47:32.000Z,87.58
2023-05-12T02:48:37.590Z,87.53
2023-05-12T02:49:43.965Z,87.80
2023-05-12T02:50:48.099Z,87.33
2023-05-12T02:51:53.923Z,87.13
2023-05-12T02:52:58.859Z,87.35
2023-05-12T02:54:04.999Z,87.40
2023-05-12T02:55:09.475Z,87.58
2023-05-12T02:56:15.802Z,87.37
2023-05-12T02:57:20.639Z,87.70
2023-05-12T02:58:27.125Z,87.55
2023-05-12T02:59:32.011Z,87.47
2023-05-12T03:00:42.246Z,87.62
2023-05-12T03:01:52.748Z,87.90
2023-05-12T03:03:01.457Z,87.65
2023-05-12T03:04:10.361Z,87.71
2023-05-12T03:05:17.284Z,87.55
2023-05-12T03:06:25.517Z,87.75
2023-05-12T03:07:37.079Z,87.71
2023-05-12T03:08:45.077Z,87.82
2023-05-12T03:09:50.602Z,87.65
2023-05-12T03:10:55.529Z,87.65
2023-05-12T03:12:01.155Z,87.19
2023-05-12T03:13:05.293Z,87.24
2023-05-12T03:14:13.173Z,87.57
2023-05-12T03:15:18.665Z,87.94
2023-05-12T03:16:24.856Z,87.94
2023-05-12T03:17:29.801Z,87.80
2023-05-12T03:18:34.873Z,88.00
2023-05-12T03:19:38.804Z,88.09
2023-05-12T03:20:44.464Z,88.12
2023-05-12T03:21:48.797Z,87.80
2023-05-12T03:22:53.754Z,88.54
2023-05-12T03:23:58.298Z,88.34
2023-05-12T03:25:04.235Z,88.44
2023-05-12T03:26:08.558Z,88.22
2023-05-12T03:27:14.576Z,88.45
2023-05-12T03:28:19.198Z,88.49
2023-05-12T03:29:27.037Z,88.60
2023-05-12T03:30:30.945Z,88.35
2023-05-12T03:31:36.649Z,88.46
2023-05-12T03:32:41.264Z,88.22
2023-05-12T03:33:46.720Z,88.62
2023-05-12T03:34:51.223Z,88.25
2023-05-12T03:35:57.320Z,88.75
2023-05-12T03:37:02.243Z,88.49
2023-05-12T03:38:06.864Z,88.44
2023-05-12T03:39:11.937Z,88.40
2023-05-12T03:40:19.823Z,88.67
2023-05-12T03:41:25.903Z,88.48
2023-05-12T03:42:29.630Z,88.44
2023-05-12T03:43:35.097Z,88.61
2023-05-12T03:44:41.150Z,88.53
2023-05-12T03:45:47.366Z,88.64
2023-05-12T03:46:51.938Z,88.63
2023-05-12T03:47:57.573Z,88.71
2023-05-12T03:49:02.685Z,88.67
2023-05-12T03:50:09.497Z,88.79
2023-05-12T03:51:13.929Z,89.03
2023-05-12T03:52:20.085Z,88.77
2023-05-12T03:53:23.991Z,89.00
2023-05-12T03:54:29.098Z,88.90
2023-05-12T03:55:33.016Z,88.96
2023-05-12T03:56:38.975Z,88.89
2023-05-12T03:57:43.368Z,89.09
2023-05-12T03:58:48.705Z,88.96
2023-05-12T03:59:54.855Z,88.84
2023-05-12T04:01:02.078Z,88.90
2023-05-12T04:02:08.828Z,88.92
2023-05-12T04:03:12.630Z,88.88
2023-05-12T04:04:18.245Z,89.23
2023-05-12T04:05:22.396Z,89.20
2023-05-12T04:06:27.980Z,89.45
2023-05-12T04:07:32.347Z,89.33
2023-05-12T04:08:41.881Z,89.38
2023-05-12T04:09:47.110Z,89.18
2023-05-12T04:10:53.586Z,89.25
2023-05-12T04:11:57.918Z,89.12
2023-05-12T04:13:04.232Z,89.14
2023-05-12T04:14:09.296Z,89.35
2023-05-12T04:15:16.291Z,89.26
2023-05-12T04:16:21.822Z,89.44
2023-05-12T04:17:27.423Z,89.38
2023-05-12T04:18:32.302Z,89.38
2023-05-12T04:19:38.569Z,89.40
2023-05-12T04:20:43.667Z,89.21
2023-05-12T04:21:49.689Z,89.28
2023-05-12T04:22:54.321Z,89.47
2023-05-12T04:23:59.620Z,89.37
2023-05-12T04:25:04.200Z,89.57
2023-05-12T04:26:09.930Z,89.55
2023-05-12T04:27:14.420Z,89.58
2023-05-12T04:28:19.874Z,89.48
2023-05-12T04:29:24.505Z,89.48
2023-05-12T04:30:31.928Z,89.43
2023-05-12T04:31:36.911Z,89.67
2023-05-12T04:32:42.126Z,89.58
2023-05-12T04:33:48.102Z,89.61
2023-05-12T04:34:56.760Z,89.84
2023-05-12T04:36:03.922Z,89.42
2023-05-12T04:37:10.670Z,89.80
2023-05-12T04:38:15.049Z,89.84
2023-05-12T04:39:21.014Z,89.92
2023-05-12T04:40:28.263Z,89.75
2023-05-12T04:41:33.440Z,89.79
2023-05-12T04:42:38.648Z,90.01
2023-05-12T04:44:54.315Z,90.01
2023-05-12T04:46:01.950Z,90.17
2023-05-12T04:47:05.705Z,90.07
2023-05-12T04:48:11.665Z,89.88
2023-05-12T04:49:18.439Z,90.15
2023-05-12T04:50:24.337Z,90.15
2023-05-12T04:51:32.563Z,90.18
2023-05-12T04:52:38.889Z,90.17
2023-05-12T04:53:44.755Z,90.31
2023-05-12T04:54:49.766Z,90.16
2023-05-12T04:55:53.475Z,89.97
2023-05-12T04:56:58.594Z,90.08
2023-05-12T04:58:04.163Z,90.13
2023-05-12T04:59:11.183Z,90.24
2023-05-12T05:00:16.522Z,90.22
2023-05-12T05:01:26.107Z,89.99
2023-05-12T05:02:30.288Z,90.01
2023-05-12T05:03:35.664Z,90.51
2023-05-12T05:04:40.250Z,90.62
2023-05-12T05:05:46.672Z,90.43
2023-05-12T05:06:50.368Z,90.46
2023-05-12T05:07:56.101Z,90.28
2023-05-12T05:09:02.158Z,90.35
2023-05-12T05:10:09.004Z,90.29
2023-05-12T05:11:13.560Z,90.31
2023-05-12T05:12:19.736Z,90.28
2023-05-12T05:13:24.302Z,90.57
2023-05-12T05:14:29.570Z,91.05
2023-05-12T05:15:34.592Z,91.39
2023-05-12T05:16:42.228Z,91.09
2023-05-12T05:17:50.620Z,90.89
2023-05-12T05:18:58.318Z,90.21
2023-05-12T05:20:09.250Z,89.67
2023-05-12T05:21:18.301Z,89.69
2023-05-12T05:22:22.288Z,89.78
2023-05-12T05:23:28.570Z,89.69
2023-05-12T05:24:34.201Z,89.59
2023-05-12T05:25:40.400Z,90.12
2023-05-12T05:26:45.170Z,89.84
2023-05-12T05:27:51.498Z,89.93
2023-05-12T05:28:56.089Z,89.59
2023-05-12T05:30:02.254Z,89.38
2023-05-12T05:31:08.457Z,89.30
2023-05-12T05:32:15.835Z,89.28
2023-05-12T05:33:21.847Z,89.54
2023-05-12T05:34:26.933Z,89.38
2023-05-12T05:35:33.163Z,89.13
2023-05-12T05:36:39.360Z,89.28
2023-05-12T05:37:45.066Z,89.15
2023-05-12T05:38:50.040Z,89.08
2023-05-12T05:39:55.145Z,88.96
2023-05-12T05:41:00.068Z,88.90
2023-05-12T05:42:06.647Z,88.70
2023-05-12T05:43:12.100Z,88.46
2023-05-12T05:44:18.020Z,88.84
2023-05-12T05:45:23.839Z,88.76
2023-05-12T05:46:29.024Z,88.88
2023-05-12T05:47:38.103Z,88.88
2023-05-12T05:48:43.873Z,88.92
2023-05-12T05:49:48.395Z,89.06
2023-05-12T05:50:55.215Z,88.83
2023-05-12T05:52:00.135Z,88.89
2023-05-12T05:53:05.013Z,88.85
2023-05-12T05:54:11.399Z,89.09
2023-05-12T05:55:16.102Z,89.05
2023-05-12T05:56:24.797Z,89.04
2023-05-12T05:57:30.408Z,88.53
2023-05-12T05:58:36.483Z,88.63
2023-05-12T05:59:40.968Z,88.57
2023-05-12T06:00:48.364Z,88.48
2023-05-12T06:01:54.660Z,88.49
2023-05-12T06:03:01.697Z,88.40
2023-05-12T06:04:08.331Z,88.30
2023-05-12T06:05:14.525Z,88.16
2023-05-12T06:06:19.799Z,87.98
2023-05-12T06:07:24.663Z,87.48
2023-05-12T06:08:30.790Z,87.38
2023-05-12T06:09:38.860Z,87.41
2023-05-12T06:10:47.220Z,87.09
2023-05-12T06:11:52.912Z,86.85
2023-05-12T06:12:58.878Z,86.71
2023-05-12T06:14:05.135Z,86.41
2023-05-12T06:15:13.402Z,86.21
2023-05-12T06:16:19.809Z,86.33
2023-05-12T06:17:31.263Z,86.35
2023-05-12T06:18:44.585Z,85.89
2023-05-12T06:19:53.302Z,85.66
2023-05-12T06:21:01.833Z,85.23
2023-05-12T06:22:10.847Z,85.20
2023-05-12T06:23:18.801Z,84.95
2023-05-12T06:24:28.972Z,84.82
2023-05-12T06:25:38.572Z,84.57
2023-05-12T06:26:47.154Z,84.60
2023-05-12T06:27:55.388Z,84.26
2023-05-12T06:29:03.479Z,84.24
2023-05-12T06:30:15.791Z,84.20
2023-05-12T06:31:24.056Z,83.98
2023-05-12T06:32:33.011Z,84.28
2023-05-12T06:33:41.186Z,84.04
2023-05-12T06:34:49.867Z,84.10
2023-05-12T06:35:58.396Z,83.95
2023-05-12T06:37:04.913Z,83.94
2023-05-12T06:38:13.871Z,83.95
2023-05-12T06:39:21.308Z,83.82
2023-05-12T06:40:29.147Z,83.67
2023-05-12T06:41:37.939Z,83.29
2023-05-12T06:42:44.403Z,83.34
2023-05-12T06:43:52.468Z,83.21
2023-05-12T06:44:59.166Z,83.15
2023-05-12T06:46:06.895Z,83.00
2023-05-12T06:47:13.227Z,83.12
2023-05-12T06:48:21.019Z,82.69
2023-05-12T06:49:29.490Z,82.66
2023-05-12T06:50:35.988Z,82.36
2023-05-12T06:51:41.607Z,82.54
2023-05-12T06:52:48.345Z,82.50
2023-05-12T06:53:53.689Z,82.33
2023-05-12T06:55:00.688Z,82.57
2023-05-12T06:56:07.097Z,82.31
2023-05-12T06:57:13.127Z,82.02
2023-05-12T06:58:20.384Z,82.17
2023-05-12T06:59:26.639Z,82.49
2023-05-12T07:00:32.457Z,81.75
2023-05-12T07:01:37.299Z,81.80
2023-05-12T07:02:42.153Z,81.61
2023-05-12T07:03:48.351Z,81.88
2023-05-12T07:04:54.892Z,81.50
2023-05-12T07:06:02.827Z,81.59
2023-05-12T07:07:07.556Z,81.55
2023-05-12T07:08:14.046Z,81.46
2023-05-12T07:09:20.246Z,81.43
2023-05-12T07:10:25.996Z,81.51
2023-05-12T07:11:29.790Z,81.17
2023-05-12T07:12:34.893Z,80.74
2023-05-12T07:13:40.538Z,81.13
2023-05-12T07:14:45.005Z,80.84
2023-05-12T07:15:50.804Z,80.92
2023-05-12T07:16:55.212Z,80.69
2023-05-12T07:18:01.219Z,80.74
2023-05-12T07:19:10.194Z,80.43
2023-05-12T07:20:17.071Z,80.65
2023-05-12T07:21:22.713Z,80.50
2023-05-12T07:22:28.025Z,80.49
2023-05-12T07:23:35.228Z,79.77
2023-05-12T07:24:43.057Z,80.00
2023-05-12T07:25:48.763Z,80.37
2023-05-12T07:26:56.694Z,80.42
2023-05-12T07:28:01.961Z,80.13
2023-05-12T07:29:14.017Z,79.99
2023-05-12T07:30:19.188Z,79.79
2023-05-12T07:31:23.622Z,79.78
2023-05-12T07:32:29.190Z,79.75
2023-05-12T07:33:35.963Z,79.58
2023-05-12T07:34:40.532Z,78.95
2023-05-12T07:35:50.079Z,79.00
2023-05-12T07:36:55.752Z,78.91
2023-05-12T07:37:59.570Z,78.10
2023-05-12T07:39:04.971Z,78.05
2023-05-12T07:40:09.714Z,77.31
2023-05-12T07:41:16.299Z,76.53
2023-05-12T07:42:21.402Z,75.40
2023-05-12T07:43:27.736Z,74.25
2023-05-12T07:44:36.135Z,74.47
2023-05-12T07:45:42.493Z,74.36
2023-05-12T07:46:47.210Z,74.67
2023-05-12T07:47:54.050Z,74.04
2023-05-12T07:49:01.339Z,74.06
2023-05-12T07:50:07.948Z,73.96
2023-05-12T07:51:17.878Z,74.05
2023-05-12T07:52:23.007Z,73.98
2023-05-12T07:53:29.473Z,74.56
2023-05-12T07:54:34.060Z,74.47
2023-05-12T07:55:39.697Z,74.49
2023-05-12T07:56:47.210Z,74.69
2023-05-12T07:57:52.390Z,74.91
2023-05-12T07:58:58.680Z,74.36
2023-05-12T08:00:05.969Z,74.34
2023-05-12T08:01:13.040Z,73.78
2023-05-12T08:02:19.298Z,73.63
2023-05-12T08:03:23.373Z,73.37
2023-05-12T08:04:30.814Z,73.20
2023-05-12T08:05:36.365Z,73.55
2023-05-12T08:06:42.570Z,73.35
2023-05-12T08:07:48.550Z,73.42
2023-05-12T08:08:52.480Z,73.20
2023-05-12T08:09:57.088Z,73.44
2023-05-12T08:11:01.294Z,73.24
2023-05-12T08:12:07.433Z,73.63
2023-05-12T08:13:13.086Z,73.19
2023-05-12T08:14:18.729Z,73.61
2023-05-12T08:15:30.052Z,73.70
2023-05-12T08:16:34.561Z,73.72
2023-05-12T08:17:40.775Z,73.83
2023-05-12T08:18:45.590Z,73.34
2023-05-12T08:19:49.697Z,73.44
2023-05-12T08:20:55.055Z,73.36
2023-05-12T08:22:02.569Z,73.71
2023-05-12T08:23:07.924Z,73.37
2023-05-12T08:24:13.146Z,73.67
2023-05-12T08:25:22.696Z,73.91
2023-05-12T08:26:32.115Z,73.73
2023-05-12T08:27:35.843Z,74.26
2023-05-12T08:28:41.986Z,73.82
2023-05-12T08:29:46.706Z,74.23
2023-05-12T08:30:52.092Z,74.24
2023-05-12T08:31:58.094Z,74.54
2023-05-12T08:33:03.992Z,74.52
2023-05-12T08:34:12.876Z,74.97
2023-05-12T08:35:18.998Z,74.82
2023-05-12T08:36:28.086Z,75.00
2023-05-12T08:37:34.845Z,73.83
2023-05-12T08:38:40.755Z,73.23
2023-05-12T08:39:47.002Z,72.74
2023-05-12T08:41:07.431Z,71.47
2023-05-12T08:42:25.555Z,69.09
2023-05-12T08:43:39.935Z,67.57
2023-05-12T08:44:46.809Z,66.20
2023-05-12T08:45:58.592Z,64.95
2023-05-12T08:47:06.131Z,63.43
2023-05-12T08:48:13.902Z,61.96
2023-05-12T08:49:23.322Z,60.45
2023-05-12T08:50:33.756Z,59.80
2023-05-12T08:51:40.672Z,59.41
2023-05-12T08:52:47.986Z,57.82
2023-05-12T08:53:55.691Z,57.59
2023-05-12T08:55:17.914Z,56.94
2023-05-12T08:57:35.414Z,56.67
2023-05-12T08:58:42.541Z,56.77
2023-05-12T08:59:51.122Z,55.02
2023-05-12T09:00:55.400Z,54.07
2023-05-12T09:02:05.379Z,52.84
2023-05-12T09:03:14.948Z,51.95
2023-05-12T09:04:21.183Z,51.67
2023-05-12T09:05:26.497Z,50.56
2023-05-12T09:06:35.136Z,49.52
2023-05-12T09:07:44.102Z,50.42
2023-05-12T09:08:57.469Z,51.11
2023-05-12T09:10:07.333Z,51.05
2023-05-12T09:11:16.204Z,50.29
2023-05-12T09:12:22.649Z,49.77
2023-05-12T09:13:35.805Z,49.66
2023-05-12T09:14:43.730Z,50.15
2023-05-12T09:15:52.292Z,51.19
2023-05-12T09:17:04.772Z,51.87
2023-05-12T09:18:09.716Z,52.41
2023-05-12T09:19:15.965Z,51.19
2023-05-12T09:20:31.723Z,50.25
2023-05-12T09:21:39.838Z,49.87
2023-05-12T09:22:46.625Z,49.63
2023-05-12T09:23:58.849Z,49.96
2023-05-12T09:25:17.962Z,51.41
2023-05-12T09:26:26.493Z,52.77
2023-05-12T09:27:33.707Z,53.11
2023-05-12T09:28:40.609Z,53.76
2023-05-12T09:29:58.946Z,54.12
2023-05-12T09:31:15.357Z,54.82
2023-05-12T09:32:35.189Z,55.42
2023-05-12T09:33:45.051Z,56.14
2023-05-12T09:34:55.461Z,56.80
2023-05-12T09:36:01.941Z,57.09
2023-05-12T09:37:10.481Z,57.43
2023-05-12T09:38:16.315Z,58.19
2023-05-12T09:39:30.588Z,59.14
2023-05-12T09:40:36.759Z,59.96
2023-05-12T09:41:43.438Z,61.00
2023-05-12T09:42:47.694Z,61.43
2023-05-12T09:43:56.872Z,61.89
2023-05-12T09:45:04.329Z,62.32
2023-05-12T09:46:13.636Z,63.34
2023-05-12T09:47:24.521Z,63.26
2023-05-12T09:48:36.160Z,64.27
2023-05-12T09:49:55.337Z,64.66
2023-05-12T09:50:59.958Z,65.02
2023-05-12T09:52:09.241Z,65.94
2023-05-12T09:53:15.981Z,66.73
2023-05-12T09:54:31.053Z,67.74
2023-05-12T09:55:35.140Z,68.44
2023-05-12T09:56:44.562Z,69.18
2023-05-12T09:57:51.796Z,69.60
2023-05-12T09:58:59.999Z,70.21
2023-05-12T10:00:13.846Z,70.66
2023-05-12T10:01:28.555Z,71.11
2023-05-12T10:02:37.660Z,71.39
2023-05-12T10:03:44.577Z,71.70
2023-05-12T10:04:54.028Z,71.81
2023-05-12T10:06:05.010Z,72.15
2023-05-12T10:07:15.120Z,72.38
2023-05-12T10:08:27.229Z,72.40
2023-05-12T10:09:39.527Z,72.58
2023-05-12T10:10:49.322Z,72.75
2023-05-12T10:11:54.162Z,73.22
2023-05-12T10:12:59.287Z,73.45
2023-05-12T10:14:03.432Z,73.86
2023-05-12T10:15:09.896Z,73.86
2023-05-12T10:16:14.908Z,74.17
2023-05-12T10:17:23.519Z,74.18
2023-05-12T10:18:29.385Z,74.62
2023-05-12T10:19:39.244Z,74.82
2023-05-12T10:20:45.653Z,74.96
2023-05-12T10:21:53.545Z,75.41
2023-05-12T10:23:00.741Z,75.60
2023-05-12T10:24:08.302Z,75.65
2023-05-12T10:25:17.029Z,75.98
2023-05-12T10:26:30.628Z,76.07
2023-05-12T10:27:38.335Z,76.21
2023-05-12T10:28:52.670Z,76.40
2023-05-12T10:29:57.740Z,76.69
2023-05-12T10:31:05.913Z,76.85
2023-05-12T10:32:11.407Z,77.22
2023-05-12T10:33:27.742Z,77.22
2023-05-12T10:34:38.291Z,77.39
2023-05-12T10:35:49.329Z,77.79
2023-05-12T10:36:55.955Z,77.40
2023-05-12T10:38:06.618Z,77.57
2023-05-12T10:39:15.923Z,77.93
2023-05-12T10:40:27.422Z,77.86
2023-05-12T10:41:34.678Z,78.16
2023-05-12T10:42:40.924Z,78.56
2023-05-12T10:43:53.223Z,78.50
2023-05-12T10:45:00.455Z,79.16
2023-05-12T10:46:21.012Z,79.18
2023-05-12T10:47:27.603Z,79.67
2023-05-12T10:48:33.314Z,79.26
2023-05-12T10:49:43.148Z,79.47
2023-05-12T10:50:56.956Z,79.86
2023-05-12T10:52:09.959Z,79.95
2023-05-12T10:53:50.239Z,80.15
2023-05-12T10:55:04.852Z,79.81
2023-05-12T10:56:11.993Z,79.17
2023-05-12T10:57:22.700Z,78.96
2023-05-12T10:58:27.437Z,78.40
2023-05-12T10:59:33.804Z,77.86
2023-05-12T11:00:55.930Z,76.98
2023-05-12T11:02:03.968Z,76.51
2023-05-12T11:03:18.893Z,75.81
2023-05-12T11:04:27.498Z,75.43
2023-05-12T11:05:39.063Z,74.83
2023-05-12T11:06:47.166Z,74.78
2023-05-12T11:07:55.586Z,73.85
2023-05-12T11:09:05.025Z,73.91
2023-05-12T11:10:15.432Z,73.62
2023-05-12T11:11:25.148Z,73.65
2023-05-12T11:12:33.766Z,73.21
2023-05-12T11:13:40.690Z,72.98
2023-05-12T11:14:47.893Z,73.05
2023-05-12T11:15:57.697Z,72.26
2023-05-12T11:17:04.441Z,71.72
2023-05-12T11:18:10.696Z,71.41
2023-05-12T11:19:16.408Z,71.01
2023-05-12T11:20:26.736Z,70.29
2023-05-12T11:21:35.130Z,70.44
2023-05-12T11:22:45.662Z,70.25
2023-05-12T11:23:53.429Z,70.03
2023-05-12T11:25:14.155Z,70.56
2023-05-12T11:26:22.496Z,70.38
2023-05-12T11:27:33.802Z,70.74
2023-05-12T11:28:45.008Z,70.36
2023-05-12T11:29:59.738Z,69.40
2023-05-12T11:31:09.084Z,69.62
2023-05-12T11:32:17.782Z,68.56
2023-05-12T11:33:28.276Z,68.01
2023-05-12T11:34:40.219Z,67.19
2023-05-12T11:35:50.657Z,67.51
2023-05-12T11:36:58.834Z,68.11
2023-05-12T11:38:16.535Z,68.80
2023-05-12T11:39:22.741Z,69.72
2023-05-12T11:40:27.266Z,70.33
2023-05-12T11:41:33.616Z,70.96
2023-05-12T11:42:38.357Z,71.57
2023-05-12T11:43:43.749Z,72.32
2023-05-12T11:44:51.522Z,72.65
2023-05-12T11:46:06.354Z,73.17
2023-05-12T11:47:23.785Z,73.82
2023-05-12T11:48:48.380Z,74.17
2023-05-12T11:50:36.561Z,75.01
2023-05-12T11:51:50.653Z,75.98
2023-05-12T11:53:10.539Z,76.18
2023-05-12T11:54:56.111Z,76.60
2023-05-12T11:56:16.974Z,77.14
2023-05-12T11:57:30.416Z,77.35
2023-05-12T11:58:36.080Z,77.96
2023-05-12T11:59:41.476Z,77.95
2023-05-12T12:00:48.390Z,78.31
2023-05-12T12:01:54.650Z,78.34
2023-05-12T12:03:12.383Z,78.58
2023-05-12T12:04:18.163Z,78.65
2023-05-12T12:05:22.987Z,78.82
2023-05-12T12:06:31.279Z,78.72
2023-05-12T12:07:37.135Z,78.53
2023-05-12T12:08:52.570Z,78.94
2023-05-12T12:09:57.299Z,79.08
2023-05-12T12:11:04.830Z,79.23
2023-05-12T12:12:10.574Z,79.07
2023-05-12T12:13:23.050Z,79.26
2023-05-12T12:14:26.909Z,79.42
2023-05-12T12:15:40.140Z,79.49
2023-05-12T12:16:47.743Z,79.68
2023-05-12T12:17:54.372Z,79.96
2023-05-12T12:19:00.674Z,80.02
2023-05-12T12:20:05.759Z,79.83
2023-05-12T12:21:10.424Z,80.08
2023-05-12T12:22:17.100Z,80.26
2023-05-12T12:23:23.972Z,80.57
2023-05-12T12:24:27.708Z,80.54
2023-05-12T12:25:32.321Z,80.57
2023-05-12T12:26:39.674Z,80.62
2023-05-12T12:27:44.489Z,80.68
2023-05-12T12:28:52.245Z,80.83
2023-05-12T12:29:56.719Z,81.20
2023-05-12T12:31:04.544Z,81.08
2023-05-12T12:32:11.284Z,81.18
2023-05-12T12:33:16.861Z,81.24
2023-05-12T12:34:23.661Z,81.43
2023-05-12T12:35:28.936Z,81.22
2023-05-12T12:36:35.751Z,81.43
2023-05-12T12:37:40.055Z,81.36
2023-05-12T12:38:51.245Z,81.57
2023-05-12T12:39:57.637Z,81.73
2023-05-12T12:41:02.778Z,81.64
2023-05-12T12:42:08.459Z,81.77
2023-05-12T12:43:13.611Z,81.78
2023-05-12T12:44:20.639Z,81.60
2023-05-12T12:45:26.710Z,81.82
2023-05-12T12:46:33.263Z,81.88
2023-05-12T12:47:39.422Z,82.03
2023-05-12T12:48:45.666Z,81.53
2023-05-12T12:49:52.248Z,81.85
2023-05-12T12:51:00.749Z,81.85
2023-05-12T12:52:06.898Z,81.65
2023-05-12T12:53:13.497Z,81.95
2023-05-12T12:54:18.751Z,82.07
2023-05-12T12:55:23.526Z,82.28
2023-05-12T12:56:28.621Z,82.29
2023-05-12T12:57:34.574Z,82.39
2023-05-12T12:58:40.496Z,82.12
2023-05-12T12:59:47.211Z,82.55
2023-05-12T13:00:53.226Z,82.12
2023-05-12T13:02:00.771Z,82.22
2023-05-12T13:03:06.144Z,82.37
2023-05-12T13:04:10.222Z,82.46
2023-05-12T13:05:19.348Z,82.30
2023-05-12T13:06:25.500Z,82.22
2023-05-12T13:07:30.054Z,82.28
2023-05-12T13:08:35.978Z,82.17
2023-05-12T13:09:41.788Z,82.25
2023-05-12T13:10:47.118Z,82.24
2023-05-12T13:11:52.365Z,82.19
2023-05-12T13:12:57.836Z,82.11
2023-05-12T13:14:03.007Z,82.36
2023-05-12T13:15:11.236Z,82.05
2023-05-12T13:16:15.959Z,82.01
2023-05-12T13:17:21.756Z,81.75
2023-05-12T13:18:28.108Z,82.26
2023-05-12T13:19:32.600Z,81.79
2023-05-12T13:20:37.633Z,81.94
2023-05-12T13:21:41.066Z,82.34
2023-05-12T13:22:47.504Z,81.87
2023-05-12T13:23:52.799Z,82.02
2023-05-12T13:24:58.063Z,82.12
2023-05-12T13:26:04.315Z,82.22
2023-05-12T13:27:10.879Z,82.35
2023-05-12T13:28:16.947Z,82.49
2023-05-12T13:29:21.998Z,82.62
2023-05-12T13:30:29.658Z,82.83
2023-05-12T13:31:35.335Z,82.68
2023-05-12T13:32:43.973Z,82.73
2023-05-12T13:33:48.276Z,82.75
2023-05-12T13:34:53.422Z,82.99
2023-05-12T13:36:02.155Z,82.84
2023-05-12T13:37:10.200Z,83.05
2023-05-12T13:38:15.705Z,82.81
2023-05-12T13:39:21.276Z,82.99
2023-05-12T13:40:26.688Z,82.93
2023-05-12T13:41:30.806Z,82.54
2023-05-12T13:42:36.846Z,82.71
2023-05-12T13:43:41.156Z,82.64
2023-05-12T13:44:46.650Z,82.30
2023-05-12T13:45:53.349Z,82.36
2023-05-12T13:46:59.296Z,82.28
2023-05-12T13:48:04.869Z,82.07
2023-05-12T13:49:09.638Z,82.07
2023-05-12T13:50:15.322Z,82.04
2023-05-12T13:51:22.090Z,81.63
2023-05-12T13:52:28.818Z,81.84
2023-05-12T13:53:33.795Z,81.74
2023-05-12T13:54:40.690Z,81.78
2023-05-12T13:55:45.915Z,81.91
2023-05-12T13:56:51.811Z,81.36
2023-05-12T13:57:56.464Z,81.59
2023-05-12T13:59:02.185Z,81.85
2023-05-12T14:00:06.596Z,81.37
2023-05-12T14:01:15.151Z,81.54
2023-05-12T14:02:20.251Z,81.38
2023-05-12T14:03:25.587Z,80.88
2023-05-12T14:04:32.291Z,80.89
2023-05-12T14:05:39.320Z,80.51
2023-05-12T14:06:46.878Z,80.30
2023-05-12T14:07:54.070Z,79.93
2023-05-12T14:09:00.451Z,79.92
2023-05-12T14:10:04.931Z,79.31
2023-05-12T14:11:16.239Z,79.15
2023-05-12T14:12:27.111Z,79.10
2023-05-12T14:13:33.192Z,78.94
2023-05-12T14:14:36.809Z,78.86
2023-05-12T14:15:49.407Z,78.54
2023-05-12T14:16:58.220Z,78.11
2023-05-12T14:18:04.452Z,77.87
2023-05-12T14:19:11.567Z,77.95
2023-05-12T14:20:15.328Z,77.87
2023-05-12T14:21:20.158Z,77.63
2023-05-12T14:22:27.381Z,77.63
2023-05-12T14:23:35.314Z,77.53
2023-05-12T14:24:42.231Z,77.04
2023-05-12T14:25:47.238Z,77.06
2023-05-12T14:26:52.333Z,76.59
2023-05-12T14:27:57.834Z,76.50